sensor_id;sensor_type;location;lat;lon;timestamp;P1;durP1;ratioP1;P2;durP2;ratioP2
41115;SDS011;26861;51.824;4.682;2023-09-18T00:00:59;5.22;;;4.25;;
41115;SDS011;26861;51.824;4.682;2023-09-18T00:03:25;4.18;;;3.85;;
41115;SDS011;26861;51.824;4.682;2023-09-18T00:05:52;4.60;;;4.15;;
41115;SDS011;26861;51.824;4.682;2023-09-18T00:08:18;4.53;;;4.13;;
41115;SDS011;26861;51.824;4.682;2023-09-18T00:10:53;4.95;;;3.83;;
41115;SDS011;26861;51.824;4.682;2023-09-18T00:13:20;5.68;;;4.18;;
41115;SDS011;26861;51.824;4.682;2023-09-18T00:15:46;4.60;;;4.20;;
41115;SDS011;26861;51.824;4.682;2023-09-18T00:18:16;5.93;;;3.90;;
41115;SDS011;26861;51.824;4.682;2023-09-18T00:20:42;4.35;;;3.95;;
41115;SDS011;26861;51.824;4.682;2023-09-18T00:23:08;4.57;;;4.18;;
41115;SDS011;26861;51.824;4.682;2023-09-18T00:25:35;4.18;;;3.78;;
41115;SDS011;26861;51.824;4.682;2023-09-18T00:28:01;3.85;;;3.55;;
41115;SDS011;26861;51.824;4.682;2023-09-18T00:30:28;3.88;;;3.58;;
41115;SDS011;26861;51.824;4.682;2023-09-18T00:32:54;4.68;;;4.13;;
41115;SDS011;26861;51.824;4.682;2023-09-18T00:35:20;3.97;;;3.63;;
41115;SDS011;26861;51.824;4.682;2023-09-18T00:37:48;4.28;;;3.88;;
41115;SDS011;26861;51.824;4.682;2023-09-18T00:40:14;4.40;;;4.00;;
41115;SDS011;26861;51.824;4.682;2023-09-18T00:42:40;3.92;;;3.58;;
41115;SDS011;26861;51.824;4.682;2023-09-18T00:45:06;4.38;;;3.97;;
41115;SDS011;26861;51.824;4.682;2023-09-18T00:47:33;3.42;;;3.13;;
41115;SDS011;26861;51.824;4.682;2023-09-18T00:50:01;4.25;;;3.95;;
41115;SDS011;26861;51.824;4.682;2023-09-18T00:52:28;5.07;;;4.07;;
41115;SDS011;26861;51.824;4.682;2023-09-18T00:54:55;4.50;;;4.10;;
41115;SDS011;26861;51.824;4.682;2023-09-18T00:57:21;4.00;;;3.70;;
41115;SDS011;26861;51.824;4.682;2023-09-18T00:59:48;4.40;;;4.00;;
41115;SDS011;26861;51.824;4.682;2023-09-18T01:02:15;4.07;;;3.78;;
41115;SDS011;26861;51.824;4.682;2023-09-18T01:04:41;4.50;;;3.20;;
41115;SDS011;26861;51.824;4.682;2023-09-18T01:07:09;3.85;;;3.55;;
41115;SDS011;26861;51.824;4.682;2023-09-18T01:09:36;3.53;;;3.22;;
41115;SDS011;26861;51.824;4.682;2023-09-18T01:15:22;3.67;;;3.38;;
41115;SDS011;26861;51.824;4.682;2023-09-18T01:17:56;4.30;;;3.90;;
41115;SDS011;26861;51.824;4.682;2023-09-18T01:20:22;4.13;;;3.72;;
41115;SDS011;26861;51.824;4.682;2023-09-18T01:22:48;3.90;;;3.60;;
41115;SDS011;26861;51.824;4.682;2023-09-18T01:25:15;3.85;;;3.55;;
41115;SDS011;26861;51.824;4.682;2023-09-18T01:27:41;4.07;;;3.70;;
41115;SDS011;26861;51.824;4.682;2023-09-18T01:30:07;3.90;;;3.45;;
41115;SDS011;26861;51.824;4.682;2023-09-18T01:32:34;4.10;;;3.70;;
41115;SDS011;26861;51.824;4.682;2023-09-18T01:35:02;3.90;;;3.60;;
41115;SDS011;26861;51.824;4.682;2023-09-18T01:37:31;3.80;;;3.50;;
41115;SDS011;26861;51.824;4.682;2023-09-18T01:39:57;3.60;;;3.30;;
41115;SDS011;26861;51.824;4.682;2023-09-18T01:42:24;3.80;;;3.50;;
41115;SDS011;26861;51.824;4.682;2023-09-18T01:44:51;2.85;;;2.65;;
41115;SDS011;26861;51.824;4.682;2023-09-18T01:47:19;3.17;;;2.88;;
41115;SDS011;26861;51.824;4.682;2023-09-18T01:49:46;3.38;;;3.08;;
41115;SDS011;26861;51.824;4.682;2023-09-18T01:52:12;3.13;;;2.90;;
41115;SDS011;26861;51.824;4.682;2023-09-18T01:54:39;4.07;;;3.67;;
41115;SDS011;26861;51.824;4.682;2023-09-18T01:57:05;3.50;;;3.20;;
41115;SDS011;26861;51.824;4.682;2023-09-18T01:59:34;3.67;;;3.37;;
41115;SDS011;26861;51.824;4.682;2023-09-18T02:02:00;3.42;;;3.13;;
41115;SDS011;26861;51.824;4.682;2023-09-18T02:04:28;3.60;;;3.30;;
41115;SDS011;26861;51.824;4.682;2023-09-18T02:06:55;3.45;;;3.10;;
41115;SDS011;26861;51.824;4.682;2023-09-18T02:09:22;2.97;;;2.78;;
41115;SDS011;26861;51.824;4.682;2023-09-18T02:11:48;3.42;;;3.20;;
41115;SDS011;26861;51.824;4.682;2023-09-18T02:14:14;3.10;;;2.88;;
41115;SDS011;26861;51.824;4.682;2023-09-18T02:16:41;3.72;;;3.42;;
41115;SDS011;26861;51.824;4.682;2023-09-18T02:19:08;2.85;;;2.65;;
41115;SDS011;26861;51.824;4.682;2023-09-18T02:21:34;3.47;;;3.17;;
41115;SDS011;26861;51.824;4.682;2023-09-18T02:24:00;3.25;;;3.05;;
41115;SDS011;26861;51.824;4.682;2023-09-18T02:26:27;3.25;;;2.92;;
41115;SDS011;26861;51.824;4.682;2023-09-18T02:28:53;3.10;;;2.80;;
41115;SDS011;26861;51.824;4.682;2023-09-18T02:31:19;3.30;;;3.08;;
41115;SDS011;26861;51.824;4.682;2023-09-18T02:33:45;3.15;;;2.95;;
41115;SDS011;26861;51.824;4.682;2023-09-18T02:36:12;3.35;;;3.08;;
41115;SDS011;26861;51.824;4.682;2023-09-18T02:38:38;3.08;;;2.88;;
41115;SDS011;26861;51.824;4.682;2023-09-18T02:41:04;3.42;;;3.08;;
41115;SDS011;26861;51.824;4.682;2023-09-18T02:43:30;2.60;;;2.40;;
41115;SDS011;26861;51.824;4.682;2023-09-18T02:45:56;3.20;;;3.00;;
41115;SDS011;26861;51.824;4.682;2023-09-18T02:48:22;3.05;;;2.83;;
41115;SDS011;26861;51.824;4.682;2023-09-18T02:50:48;2.83;;;2.63;;
41115;SDS011;26861;51.824;4.682;2023-09-18T02:53:18;3.13;;;2.47;;
41115;SDS011;26861;51.824;4.682;2023-09-18T02:55:50;4.18;;;2.90;;
41115;SDS011;26861;51.824;4.682;2023-09-18T02:58:17;2.75;;;2.55;;
41115;SDS011;26861;51.824;4.682;2023-09-18T03:00:44;2.58;;;2.38;;
41115;SDS011;26861;51.824;4.682;2023-09-18T03:03:10;3.35;;;3.05;;
41115;SDS011;26861;51.824;4.682;2023-09-18T03:05:37;2.53;;;2.33;;
41115;SDS011;26861;51.824;4.682;2023-09-18T03:08:03;2.75;;;2.55;;
41115;SDS011;26861;51.824;4.682;2023-09-18T03:10:32;2.95;;;2.70;;
41115;SDS011;26861;51.824;4.682;2023-09-18T03:12:59;4.38;;;2.70;;
41115;SDS011;26861;51.824;4.682;2023-09-18T03:15:25;3.10;;;2.90;;
41115;SDS011;26861;51.824;4.682;2023-09-18T03:17:51;2.85;;;2.65;;
41115;SDS011;26861;51.824;4.682;2023-09-18T03:20:17;3.38;;;2.83;;
41115;SDS011;26861;51.824;4.682;2023-09-18T03:22:43;3.42;;;3.10;;
41115;SDS011;26861;51.824;4.682;2023-09-18T03:25:09;3.22;;;2.92;;
41115;SDS011;26861;51.824;4.682;2023-09-18T03:27:35;3.20;;;2.90;;
41115;SDS011;26861;51.824;4.682;2023-09-18T03:30:01;3.92;;;2.97;;
41115;SDS011;26861;51.824;4.682;2023-09-18T03:32:27;3.08;;;2.78;;
41115;SDS011;26861;51.824;4.682;2023-09-18T03:34:53;3.08;;;2.83;;
41115;SDS011;26861;51.824;4.682;2023-09-18T03:37:19;2.92;;;2.63;;
41115;SDS011;26861;51.824;4.682;2023-09-18T03:39:45;2.17;;;2.00;;
41115;SDS011;26861;51.824;4.682;2023-09-18T03:42:12;2.20;;;2.10;;
41115;SDS011;26861;51.824;4.682;2023-09-18T03:44:37;3.17;;;2.42;;
41115;SDS011;26861;51.824;4.682;2023-09-18T03:47:04;2.85;;;2.65;;
41115;SDS011;26861;51.824;4.682;2023-09-18T03:49:30;2.60;;;2.40;;
41115;SDS011;26861;51.824;4.682;2023-09-18T03:51:56;2.60;;;2.40;;
41115;SDS011;26861;51.824;4.682;2023-09-18T03:54:23;2.50;;;2.30;;
41115;SDS011;26861;51.824;4.682;2023-09-18T03:56:49;3.45;;;2.80;;
41115;SDS011;26861;51.824;4.682;2023-09-18T03:59:16;3.25;;;2.35;;
41115;SDS011;26861;51.824;4.682;2023-09-18T04:08:25;2.92;;;2.55;;
41115;SDS011;26861;51.824;4.682;2023-09-18T04:10:51;3.53;;;2.72;;
41115;SDS011;26861;51.824;4.682;2023-09-18T04:13:23;2.45;;;2.25;;
41115;SDS011;26861;51.824;4.682;2023-09-18T04:15:49;2.85;;;2.58;;
41115;SDS011;26861;51.824;4.682;2023-09-18T04:18:17;2.53;;;2.10;;
41115;SDS011;26861;51.824;4.682;2023-09-18T04:20:43;2.22;;;2.13;;
41115;SDS011;26861;51.824;4.682;2023-09-18T04:23:17;2.22;;;2.10;;
41115;SDS011;26861;51.824;4.682;2023-09-18T04:25:47;2.92;;;2.08;;
41115;SDS011;26861;51.824;4.682;2023-09-18T04:28:14;2.33;;;2.13;;
41115;SDS011;26861;51.824;4.682;2023-09-18T04:30:40;2.60;;;2.40;;
41115;SDS011;26861;51.824;4.682;2023-09-18T04:33:06;2.35;;;2.15;;
41115;SDS011;26861;51.824;4.682;2023-09-18T04:35:33;2.03;;;1.92;;
41115;SDS011;26861;51.824;4.682;2023-09-18T04:37:59;3.10;;;2.30;;
41115;SDS011;26861;51.824;4.682;2023-09-18T04:40:26;2.83;;;2.55;;
41115;SDS011;26861;51.824;4.682;2023-09-18T04:43:00;2.22;;;2.08;;
41115;SDS011;26861;51.824;4.682;2023-09-18T04:45:27;2.28;;;2.08;;
41115;SDS011;26861;51.824;4.682;2023-09-18T04:47:54;2.30;;;2.10;;
41115;SDS011;26861;51.824;4.682;2023-09-18T04:50:20;1.90;;;1.80;;
41115;SDS011;26861;51.824;4.682;2023-09-18T04:52:47;2.13;;;1.85;;
41115;SDS011;26861;51.824;4.682;2023-09-18T04:55:14;2.22;;;1.95;;
41115;SDS011;26861;51.824;4.682;2023-09-18T04:57:40;2.30;;;2.10;;
41115;SDS011;26861;51.824;4.682;2023-09-18T05:00:07;2.40;;;2.10;;
41115;SDS011;26861;51.824;4.682;2023-09-18T05:02:34;2.42;;;2.22;;
41115;SDS011;26861;51.824;4.682;2023-09-18T05:05:01;2.38;;;2.17;;
41115;SDS011;26861;51.824;4.682;2023-09-18T05:07:29;2.40;;;2.08;;
41115;SDS011;26861;51.824;4.682;2023-09-18T05:09:56;2.30;;;2.10;;
41115;SDS011;26861;51.824;4.682;2023-09-18T05:12:22;2.20;;;2.00;;
41115;SDS011;26861;51.824;4.682;2023-09-18T05:14:48;3.33;;;2.35;;
41115;SDS011;26861;51.824;4.682;2023-09-18T05:17:15;2.38;;;2.17;;
41115;SDS011;26861;51.824;4.682;2023-09-18T05:19:41;2.60;;;2.33;;
41115;SDS011;26861;51.824;4.682;2023-09-18T05:22:08;2.75;;;2.10;;
41115;SDS011;26861;51.824;4.682;2023-09-18T05:24:38;2.40;;;2.00;;
41115;SDS011;26861;51.824;4.682;2023-09-18T05:27:04;2.53;;;1.98;;
41115;SDS011;26861;51.824;4.682;2023-09-18T05:29:33;4.32;;;1.83;;
41115;SDS011;26861;51.824;4.682;2023-09-18T05:32:01;2.17;;;1.98;;
41115;SDS011;26861;51.824;4.682;2023-09-18T05:34:29;1.67;;;1.55;;
41115;SDS011;26861;51.824;4.682;2023-09-18T05:36:56;2.33;;;1.83;;
41115;SDS011;26861;51.824;4.682;2023-09-18T05:39:23;1.70;;;1.60;;
41115;SDS011;26861;51.824;4.682;2023-09-18T05:41:49;1.90;;;1.65;;
41115;SDS011;26861;51.824;4.682;2023-09-18T05:44:16;1.83;;;1.67;;
41115;SDS011;26861;51.824;4.682;2023-09-18T05:46:42;1.40;;;1.30;;
41115;SDS011;26861;51.824;4.682;2023-09-18T05:49:08;2.53;;;1.58;;
41115;SDS011;26861;51.824;4.682;2023-09-18T05:51:35;3.55;;;1.83;;
41115;SDS011;26861;51.824;4.682;2023-09-18T05:54:02;1.73;;;1.60;;
41115;SDS011;26861;51.824;4.682;2023-09-18T05:56:28;1.80;;;1.70;;
41115;SDS011;26861;51.824;4.682;2023-09-18T05:58:54;2.10;;;1.90;;
41115;SDS011;26861;51.824;4.682;2023-09-18T06:01:21;1.75;;;1.40;;
41115;SDS011;26861;51.824;4.682;2023-09-18T06:03:47;1.95;;;1.40;;
41115;SDS011;26861;51.824;4.682;2023-09-18T06:06:13;2.00;;;1.65;;
41115;SDS011;26861;51.824;4.682;2023-09-18T06:08:39;2.03;;;1.48;;
41115;SDS011;26861;51.824;4.682;2023-09-18T06:11:05;3.67;;;1.60;;
41115;SDS011;26861;51.824;4.682;2023-09-18T06:13:31;2.25;;;1.60;;
41115;SDS011;26861;51.824;4.682;2023-09-18T06:15:59;3.20;;;2.00;;
41115;SDS011;26861;51.824;4.682;2023-09-18T06:18:31;2.75;;;1.60;;
41115;SDS011;26861;51.824;4.682;2023-09-18T06:20:57;1.70;;;1.60;;
41115;SDS011;26861;51.824;4.682;2023-09-18T06:23:24;1.73;;;1.63;;
41115;SDS011;26861;51.824;4.682;2023-09-18T06:25:50;2.30;;;1.58;;
41115;SDS011;26861;51.824;4.682;2023-09-18T06:28:22;3.97;;;1.40;;
41115;SDS011;26861;51.824;4.682;2023-09-18T06:30:48;2.45;;;1.45;;
41115;SDS011;26861;51.824;4.682;2023-09-18T06:33:14;6.30;;;1.60;;
41115;SDS011;26861;51.824;4.682;2023-09-18T06:35:41;1.95;;;1.50;;
41115;SDS011;26861;51.824;4.682;2023-09-18T06:38:07;1.50;;;1.40;;
41115;SDS011;26861;51.824;4.682;2023-09-18T06:40:35;2.55;;;1.38;;
41115;SDS011;26861;51.824;4.682;2023-09-18T06:43:01;4.85;;;1.55;;
41115;SDS011;26861;51.824;4.682;2023-09-18T06:45:27;1.90;;;1.52;;
41115;SDS011;26861;51.824;4.682;2023-09-18T06:47:53;2.85;;;1.45;;
41115;SDS011;26861;51.824;4.682;2023-09-18T06:50:20;1.48;;;1.33;;
41115;SDS011;26861;51.824;4.682;2023-09-18T06:52:47;2.55;;;1.83;;
41115;SDS011;26861;51.824;4.682;2023-09-18T06:55:14;1.80;;;1.40;;
41115;SDS011;26861;51.824;4.682;2023-09-18T06:57:42;1.60;;;1.40;;
41115;SDS011;26861;51.824;4.682;2023-09-18T07:00:08;2.45;;;1.27;;
41115;SDS011;26861;51.824;4.682;2023-09-18T07:02:34;1.38;;;1.25;;
41115;SDS011;26861;51.824;4.682;2023-09-18T07:05:00;1.42;;;1.30;;
41115;SDS011;26861;51.824;4.682;2023-09-18T07:07:26;2.38;;;1.13;;
41115;SDS011;26861;51.824;4.682;2023-09-18T07:09:53;1.30;;;1.20;;
41115;SDS011;26861;51.824;4.682;2023-09-18T07:12:19;1.42;;;1.10;;
41115;SDS011;26861;51.824;4.682;2023-09-18T07:14:46;1.83;;;1.27;;
41115;SDS011;26861;51.824;4.682;2023-09-18T07:17:13;3.55;;;1.50;;
41115;SDS011;26861;51.824;4.682;2023-09-18T07:19:39;2.15;;;1.30;;
41115;SDS011;26861;51.824;4.682;2023-09-18T07:22:06;1.20;;;1.10;;
41115;SDS011;26861;51.824;4.682;2023-09-18T07:24:32;1.65;;;1.23;;
41115;SDS011;26861;51.824;4.682;2023-09-18T07:26:58;2.22;;;1.20;;
41115;SDS011;26861;51.824;4.682;2023-09-18T07:29:25;2.22;;;1.30;;
41115;SDS011;26861;51.824;4.682;2023-09-18T07:31:51;2.78;;;1.30;;
41115;SDS011;26861;51.824;4.682;2023-09-18T07:34:18;1.90;;;1.20;;
41115;SDS011;26861;51.824;4.682;2023-09-18T07:36:44;1.65;;;1.48;;
41115;SDS011;26861;51.824;4.682;2023-09-18T07:39:11;1.73;;;1.23;;
41115;SDS011;26861;51.824;4.682;2023-09-18T07:41:37;1.90;;;1.30;;
41115;SDS011;26861;51.824;4.682;2023-09-18T07:44:04;2.35;;;1.35;;
41115;SDS011;26861;51.824;4.682;2023-09-18T07:46:30;1.88;;;0.93;;
41115;SDS011;26861;51.824;4.682;2023-09-18T07:48:56;1.90;;;1.33;;
41115;SDS011;26861;51.824;4.682;2023-09-18T07:51:23;1.23;;;1.10;;
41115;SDS011;26861;51.824;4.682;2023-09-18T07:53:49;1.52;;;1.10;;
41115;SDS011;26861;51.824;4.682;2023-09-18T07:56:16;2.08;;;1.00;;
41115;SDS011;26861;51.824;4.682;2023-09-18T07:58:44;1.30;;;1.20;;
41115;SDS011;26861;51.824;4.682;2023-09-18T08:01:12;1.30;;;1.20;;
41115;SDS011;26861;51.824;4.682;2023-09-18T08:03:39;2.92;;;1.20;;
41115;SDS011;26861;51.824;4.682;2023-09-18T08:06:06;1.65;;;1.20;;
41115;SDS011;26861;51.824;4.682;2023-09-18T08:08:32;1.30;;;1.15;;
41115;SDS011;26861;51.824;4.682;2023-09-18T08:11:00;1.67;;;0.88;;
41115;SDS011;26861;51.824;4.682;2023-09-18T08:13:31;2.47;;;1.10;;
41115;SDS011;26861;51.824;4.682;2023-09-18T08:15:58;1.05;;;0.82;;
41115;SDS011;26861;51.824;4.682;2023-09-18T08:18:28;3.15;;;0.95;;
41115;SDS011;26861;51.824;4.682;2023-09-18T08:20:55;3.30;;;1.20;;
41115;SDS011;26861;51.824;4.682;2023-09-18T08:23:23;1.20;;;1.00;;
41115;SDS011;26861;51.824;4.682;2023-09-18T08:25:49;1.52;;;1.10;;
41115;SDS011;26861;51.824;4.682;2023-09-18T08:28:17;1.40;;;0.98;;
41115;SDS011;26861;51.824;4.682;2023-09-18T08:30:43;2.60;;;1.10;;
41115;SDS011;26861;51.824;4.682;2023-09-18T08:33:13;1.55;;;1.08;;
41115;SDS011;26861;51.824;4.682;2023-09-18T08:35:39;4.93;;;1.08;;
41115;SDS011;26861;51.824;4.682;2023-09-18T08:38:06;1.80;;;0.88;;
41115;SDS011;26861;51.824;4.682;2023-09-18T08:40:33;1.63;;;0.90;;
41115;SDS011;26861;51.824;4.682;2023-09-18T08:43:00;1.42;;;1.02;;
41115;SDS011;26861;51.824;4.682;2023-09-18T08:45:38;1.60;;;1.00;;
41115;SDS011;26861;51.824;4.682;2023-09-18T08:48:10;1.33;;;0.82;;
41115;SDS011;26861;51.824;4.682;2023-09-18T08:50:37;1.40;;;0.73;;
41115;SDS011;26861;51.824;4.682;2023-09-18T08:53:03;1.52;;;1.17;;
41115;SDS011;26861;51.824;4.682;2023-09-18T08:55:30;1.92;;;0.88;;
41115;SDS011;26861;51.824;4.682;2023-09-18T08:57:58;3.10;;;0.77;;
41115;SDS011;26861;51.824;4.682;2023-09-18T09:00:25;1.20;;;0.90;;
41115;SDS011;26861;51.824;4.682;2023-09-18T09:02:51;2.08;;;0.80;;
41115;SDS011;26861;51.824;4.682;2023-09-18T09:05:19;1.00;;;0.85;;
41115;SDS011;26861;51.824;4.682;2023-09-18T09:07:45;2.72;;;1.00;;
41115;SDS011;26861;51.824;4.682;2023-09-18T09:10:15;1.90;;;0.90;;
41115;SDS011;26861;51.824;4.682;2023-09-18T09:12:48;2.10;;;0.90;;
41115;SDS011;26861;51.824;4.682;2023-09-18T09:15:19;1.42;;;0.70;;
41115;SDS011;26861;51.824;4.682;2023-09-18T09:17:46;1.42;;;0.88;;
41115;SDS011;26861;51.824;4.682;2023-09-18T09:20:20;0.98;;;0.88;;
41115;SDS011;26861;51.824;4.682;2023-09-18T09:22:46;0.98;;;0.70;;
41115;SDS011;26861;51.824;4.682;2023-09-18T09:25:26;1.98;;;0.77;;
41115;SDS011;26861;51.824;4.682;2023-09-18T09:27:54;1.10;;;1.00;;
41115;SDS011;26861;51.824;4.682;2023-09-18T09:30:21;1.45;;;0.85;;
41115;SDS011;26861;51.824;4.682;2023-09-18T09:32:53;1.05;;;0.90;;
41115;SDS011;26861;51.824;4.682;2023-09-18T09:35:22;1.60;;;0.70;;
41115;SDS011;26861;51.824;4.682;2023-09-18T09:38:07;2.60;;;0.90;;
41115;SDS011;26861;51.824;4.682;2023-09-18T09:40:34;1.02;;;1.00;;
41115;SDS011;26861;51.824;4.682;2023-09-18T09:43:00;0.95;;;0.60;;
41115;SDS011;26861;51.824;4.682;2023-09-18T09:45:30;1.00;;;0.80;;
41115;SDS011;26861;51.824;4.682;2023-09-18T09:48:04;2.75;;;1.05;;
41115;SDS011;26861;51.824;4.682;2023-09-18T09:50:32;3.47;;;0.90;;
41115;SDS011;26861;51.824;4.682;2023-09-18T09:52:58;1.20;;;0.88;;
41115;SDS011;26861;51.824;4.682;2023-09-18T09:57:57;1.35;;;0.98;;
41115;SDS011;26861;51.824;4.682;2023-09-18T10:03:20;2.63;;;0.90;;
41115;SDS011;26861;51.824;4.682;2023-09-18T10:05:47;1.77;;;1.08;;
41115;SDS011;26861;51.824;4.682;2023-09-18T10:08:25;1.98;;;0.90;;
41115;SDS011;26861;51.824;4.682;2023-09-18T10:10:53;2.45;;;0.77;;
41115;SDS011;26861;51.824;4.682;2023-09-18T10:13:29;1.65;;;1.10;;
41115;SDS011;26861;51.824;4.682;2023-09-18T10:15:58;1.95;;;1.10;;
41115;SDS011;26861;51.824;4.682;2023-09-18T10:18:42;1.60;;;0.90;;
41115;SDS011;26861;51.824;4.682;2023-09-18T10:21:20;1.77;;;0.95;;
41115;SDS011;26861;51.824;4.682;2023-09-18T10:26:32;4.35;;;1.30;;
41115;SDS011;26861;51.824;4.682;2023-09-18T10:29:04;1.75;;;1.00;;
41115;SDS011;26861;51.824;4.682;2023-09-18T10:31:32;1.98;;;1.10;;
41115;SDS011;26861;51.824;4.682;2023-09-18T10:34:00;1.07;;;0.93;;
41115;SDS011;26861;51.824;4.682;2023-09-18T10:36:28;1.92;;;1.00;;
41115;SDS011;26861;51.824;4.682;2023-09-18T10:38:55;2.63;;;1.55;;
41115;SDS011;26861;51.824;4.682;2023-09-18T10:41:25;1.30;;;1.10;;
41115;SDS011;26861;51.824;4.682;2023-09-18T10:43:53;3.00;;;1.10;;
41115;SDS011;26861;51.824;4.682;2023-09-18T10:46:23;1.92;;;1.20;;
41115;SDS011;26861;51.824;4.682;2023-09-18T10:48:51;2.20;;;1.10;;
41115;SDS011;26861;51.824;4.682;2023-09-18T10:51:21;0.95;;;0.90;;
41115;SDS011;26861;51.824;4.682;2023-09-18T10:53:49;2.00;;;1.10;;
41115;SDS011;26861;51.824;4.682;2023-09-18T10:56:15;1.65;;;0.95;;
41115;SDS011;26861;51.824;4.682;2023-09-18T10:58:43;3.22;;;1.23;;
41115;SDS011;26861;51.824;4.682;2023-09-18T11:01:11;1.52;;;1.00;;
41115;SDS011;26861;51.824;4.682;2023-09-18T11:03:38;1.70;;;1.20;;
41115;SDS011;26861;51.824;4.682;2023-09-18T11:06:06;4.80;;;1.52;;
41115;SDS011;26861;51.824;4.682;2023-09-18T11:11:07;1.63;;;1.10;;
41115;SDS011;26861;51.824;4.682;2023-09-18T11:13:40;1.35;;;1.13;;
41115;SDS011;26861;51.824;4.682;2023-09-18T11:18:54;2.45;;;1.05;;
41115;SDS011;26861;51.824;4.682;2023-09-18T11:21:31;3.92;;;1.48;;
41115;SDS011;26861;51.824;4.682;2023-09-18T11:24:01;2.78;;;1.27;;
41115;SDS011;26861;51.824;4.682;2023-09-18T11:26:30;2.88;;;1.20;;
41115;SDS011;26861;51.824;4.682;2023-09-18T11:29:00;2.28;;;1.50;;
41115;SDS011;26861;51.824;4.682;2023-09-18T11:31:49;2.47;;;1.00;;
41115;SDS011;26861;51.824;4.682;2023-09-18T11:36:47;2.00;;;1.02;;
41115;SDS011;26861;51.824;4.682;2023-09-18T11:39:14;1.40;;;1.08;;
41115;SDS011;26861;51.824;4.682;2023-09-18T11:42:18;2.45;;;1.25;;
41115;SDS011;26861;51.824;4.682;2023-09-18T11:44:46;2.17;;;1.33;;
41115;SDS011;26861;51.824;4.682;2023-09-18T11:47:13;1.58;;;1.25;;
41115;SDS011;26861;51.824;4.682;2023-09-18T11:49:49;3.13;;;1.35;;
41115;SDS011;26861;51.824;4.682;2023-09-18T11:52:16;3.80;;;1.40;;
41115;SDS011;26861;51.824;4.682;2023-09-18T11:54:43;2.60;;;1.02;;
41115;SDS011;26861;51.824;4.682;2023-09-18T11:57:12;1.95;;;1.00;;
41115;SDS011;26861;51.824;4.682;2023-09-18T11:59:42;2.15;;;1.25;;
41115;SDS011;26861;51.824;4.682;2023-09-18T12:02:12;1.50;;;1.00;;
41115;SDS011;26861;51.824;4.682;2023-09-18T12:04:45;1.80;;;1.23;;
41115;SDS011;26861;51.824;4.682;2023-09-18T12:07:12;2.55;;;1.38;;
41115;SDS011;26861;51.824;4.682;2023-09-18T12:09:38;1.40;;;1.30;;
41115;SDS011;26861;51.824;4.682;2023-09-18T12:12:05;1.60;;;1.25;;
41115;SDS011;26861;51.824;4.682;2023-09-18T12:14:32;3.60;;;1.20;;
41115;SDS011;26861;51.824;4.682;2023-09-18T12:16:59;2.15;;;1.20;;
41115;SDS011;26861;51.824;4.682;2023-09-18T12:19:26;2.50;;;1.17;;
41115;SDS011;26861;51.824;4.682;2023-09-18T12:21:53;1.50;;;0.82;;
41115;SDS011;26861;51.824;4.682;2023-09-18T12:24:26;3.53;;;1.00;;
41115;SDS011;26861;51.824;4.682;2023-09-18T12:26:53;1.70;;;1.35;;
41115;SDS011;26861;51.824;4.682;2023-09-18T12:29:20;1.02;;;0.93;;
41115;SDS011;26861;51.824;4.682;2023-09-18T12:31:46;1.85;;;1.20;;
41115;SDS011;26861;51.824;4.682;2023-09-18T12:34:14;1.10;;;1.00;;
41115;SDS011;26861;51.824;4.682;2023-09-18T12:36:41;2.08;;;1.35;;
41115;SDS011;26861;51.824;4.682;2023-09-18T12:39:08;2.00;;;1.35;;
41115;SDS011;26861;51.824;4.682;2023-09-18T12:41:36;2.20;;;1.20;;
41115;SDS011;26861;51.824;4.682;2023-09-18T12:44:02;1.35;;;0.90;;
41115;SDS011;26861;51.824;4.682;2023-09-18T12:46:31;2.33;;;1.20;;
41115;SDS011;26861;51.824;4.682;2023-09-18T12:48:57;2.13;;;1.15;;
41115;SDS011;26861;51.824;4.682;2023-09-18T12:51:28;1.05;;;0.80;;
41115;SDS011;26861;51.824;4.682;2023-09-18T12:54:00;1.27;;;1.05;;
41115;SDS011;26861;51.824;4.682;2023-09-18T12:56:32;1.15;;;0.85;;
41115;SDS011;26861;51.824;4.682;2023-09-18T12:58:58;2.13;;;1.10;;
41115;SDS011;26861;51.824;4.682;2023-09-18T13:01:25;1.63;;;1.00;;
41115;SDS011;26861;51.824;4.682;2023-09-18T13:03:53;1.48;;;0.93;;
41115;SDS011;26861;51.824;4.682;2023-09-18T13:06:21;0.95;;;0.90;;
41115;SDS011;26861;51.824;4.682;2023-09-18T13:08:48;2.15;;;0.82;;
41115;SDS011;26861;51.824;4.682;2023-09-18T13:11:15;1.52;;;1.10;;
41115;SDS011;26861;51.824;4.682;2023-09-18T13:13:42;2.78;;;1.00;;
41115;SDS011;26861;51.824;4.682;2023-09-18T13:16:11;1.00;;;1.00;;
41115;SDS011;26861;51.824;4.682;2023-09-18T13:18:38;1.38;;;1.08;;
41115;SDS011;26861;51.824;4.682;2023-09-18T13:21:09;1.58;;;1.17;;
41115;SDS011;26861;51.824;4.682;2023-09-18T13:23:37;1.58;;;1.00;;
41115;SDS011;26861;51.824;4.682;2023-09-18T13:26:04;1.35;;;1.10;;
41115;SDS011;26861;51.824;4.682;2023-09-18T13:28:31;1.17;;;1.08;;
41115;SDS011;26861;51.824;4.682;2023-09-18T13:30:59;1.65;;;1.20;;
41115;SDS011;26861;51.824;4.682;2023-09-18T13:33:26;1.50;;;0.90;;
41115;SDS011;26861;51.824;4.682;2023-09-18T13:35:52;2.08;;;1.10;;
41115;SDS011;26861;51.824;4.682;2023-09-18T13:38:21;1.40;;;1.08;;
41115;SDS011;26861;51.824;4.682;2023-09-18T13:40:48;1.10;;;1.00;;
41115;SDS011;26861;51.824;4.682;2023-09-18T13:43:14;1.08;;;1.02;;
41115;SDS011;26861;51.824;4.682;2023-09-18T13:45:41;1.92;;;1.13;;
41115;SDS011;26861;51.824;4.682;2023-09-18T13:48:08;1.92;;;0.80;;
41115;SDS011;26861;51.824;4.682;2023-09-18T13:50:35;1.23;;;1.10;;
41115;SDS011;26861;51.824;4.682;2023-09-18T13:53:02;2.30;;;1.20;;
41115;SDS011;26861;51.824;4.682;2023-09-18T13:55:32;1.98;;;1.10;;
41115;SDS011;26861;51.824;4.682;2023-09-18T13:57:59;1.50;;;1.17;;
41115;SDS011;26861;51.824;4.682;2023-09-18T14:00:28;1.95;;;1.20;;
41115;SDS011;26861;51.824;4.682;2023-09-18T14:02:55;1.35;;;0.80;;
41115;SDS011;26861;51.824;4.682;2023-09-18T14:05:21;2.25;;;1.08;;
41115;SDS011;26861;51.824;4.682;2023-09-18T14:07:48;1.38;;;1.20;;
41115;SDS011;26861;51.824;4.682;2023-09-18T14:10:14;1.15;;;0.80;;
41115;SDS011;26861;51.824;4.682;2023-09-18T14:12:41;1.27;;;1.00;;
41115;SDS011;26861;51.824;4.682;2023-09-18T14:15:08;2.25;;;1.00;;
41115;SDS011;26861;51.824;4.682;2023-09-18T14:17:34;3.50;;;0.95;;
41115;SDS011;26861;51.824;4.682;2023-09-18T14:20:01;1.08;;;0.90;;
41115;SDS011;26861;51.824;4.682;2023-09-18T14:22:32;1.05;;;0.98;;
41115;SDS011;26861;51.824;4.682;2023-09-18T14:24:58;3.63;;;1.10;;
41115;SDS011;26861;51.824;4.682;2023-09-18T14:27:25;4.32;;;1.10;;
41115;SDS011;26861;51.824;4.682;2023-09-18T14:29:51;2.63;;;1.17;;
41115;SDS011;26861;51.824;4.682;2023-09-18T14:32:18;4.10;;;1.10;;
41115;SDS011;26861;51.824;4.682;2023-09-18T14:34:44;2.20;;;0.88;;
41115;SDS011;26861;51.824;4.682;2023-09-18T14:37:11;1.52;;;0.68;;
41115;SDS011;26861;51.824;4.682;2023-09-18T14:39:37;1.75;;;0.77;;
41115;SDS011;26861;51.824;4.682;2023-09-18T14:42:04;2.80;;;0.93;;
41115;SDS011;26861;51.824;4.682;2023-09-18T14:44:30;2.40;;;0.60;;
41115;SDS011;26861;51.824;4.682;2023-09-18T14:46:58;1.65;;;0.70;;
41115;SDS011;26861;51.824;4.682;2023-09-18T14:49:24;2.50;;;0.68;;
41115;SDS011;26861;51.824;4.682;2023-09-18T14:51:53;1.77;;;0.70;;
41115;SDS011;26861;51.824;4.682;2023-09-18T14:54:20;0.82;;;0.60;;
41115;SDS011;26861;51.824;4.682;2023-09-18T14:56:47;2.17;;;0.80;;
41115;SDS011;26861;51.824;4.682;2023-09-18T14:59:13;1.58;;;0.68;;
41115;SDS011;26861;51.824;4.682;2023-09-18T15:01:40;1.25;;;0.55;;
41115;SDS011;26861;51.824;4.682;2023-09-18T15:04:08;1.48;;;0.60;;
41115;SDS011;26861;51.824;4.682;2023-09-18T15:06:35;1.23;;;0.60;;
41115;SDS011;26861;51.824;4.682;2023-09-18T15:09:01;1.35;;;0.60;;
41115;SDS011;26861;51.824;4.682;2023-09-18T15:11:28;2.13;;;0.75;;
41115;SDS011;26861;51.824;4.682;2023-09-18T15:13:55;1.15;;;0.52;;
41115;SDS011;26861;51.824;4.682;2023-09-18T15:16:21;2.50;;;0.75;;